createdAt,value
2022-07-25T00:05:15.338Z,26.47
2022-07-25T00:10:51.427Z,26.41
2022-07-25T00:16:23.117Z,26.47
2022-07-25T00:21:54.935Z,26.39
2022-07-25T00:27:26.609Z,26.32
2022-07-25T00:32:58.290Z,26.26
2022-07-25T00:38:30.032Z,26.23
2022-07-25T00:44:01.763Z,26.31
2022-07-25T00:49:33.448Z,26.19
2022-07-25T00:55:05.170Z,26.13
2022-07-25T01:00:36.974Z,26.01
2022-07-25T01:06:08.694Z,26.11
2022-07-25T01:11:44.787Z,25.96
2022-07-25T01:17:16.531Z,25.89
2022-07-25T01:22:48.192Z,25.77
2022-07-25T01:28:19.987Z,25.72
2022-07-25T01:33:51.642Z,25.59
2022-07-25T01:39:23.370Z,25.63
2022-07-25T01:44:55.075Z,25.58
2022-07-25T01:50:26.896Z,25.55
2022-07-25T01:55:58.510Z,25.58
2022-07-25T02:01:30.319Z,25.51
2022-07-25T02:07:01.958Z,25.4
2022-07-25T02:12:38.100Z,25.52
2022-07-25T02:18:09.822Z,25.46
2022-07-25T02:23:41.559Z,25.36
2022-07-25T02:29:13.417Z,25.36
2022-07-25T02:34:45.005Z,25.29
2022-07-25T02:40:16.717Z,25.32
2022-07-25T02:45:48.525Z,25.21
2022-07-25T02:51:20.126Z,25.16
2022-07-25T02:56:51.921Z,25.2
2022-07-25T03:02:23.596Z,25.08
2022-07-25T03:07:55.338Z,24.94
2022-07-25T03:13:33.473Z,24.75
2022-07-25T03:19:05.156Z,24.72
2022-07-25T03:24:37.085Z,24.57
2022-07-25T03:30:08.621Z,24.53
2022-07-25T03:35:40.358Z,24.42
2022-07-25T03:41:12.049Z,24.4
2022-07-25T03:46:43.803Z,24.36
2022-07-25T03:52:15.519Z,24.46
2022-07-25T03:57:47.260Z,24.4
2022-07-25T04:03:18.980Z,24.25
2022-07-25T04:08:50.662Z,24.32
2022-07-25T04:14:26.833Z,24.34
2022-07-25T04:19:58.515Z,24.32
2022-07-25T04:25:30.249Z,24.36
2022-07-25T04:31:01.977Z,24.4
2022-07-25T04:36:33.694Z,24.49
2022-07-25T04:42:05.437Z,24.55
2022-07-25T04:47:37.138Z,24.58
2022-07-25T04:53:08.918Z,24.58
2022-07-25T04:58:40.626Z,24.59
2022-07-25T05:04:12.361Z,24.58
2022-07-25T05:09:44.034Z,24.69
2022-07-25T05:15:20.168Z,24.76
2022-07-25T05:20:52.001Z,24.85
2022-07-25T05:26:23.590Z,25.04
2022-07-25T05:31:55.360Z,25.24
2022-07-25T05:37:27.038Z,25.39
2022-07-25T05:43:02.855Z,25.57
2022-07-25T05:48:30.517Z,25.81
2022-07-25T05:54:02.231Z,25.96
2022-07-25T05:59:33.992Z,26.07
2022-07-25T06:05:05.638Z,26.37
2022-07-25T06:10:37.445Z,26.56
2022-07-25T06:16:13.596Z,26.74
2022-07-25T06:21:45.226Z,26.99
2022-07-25T06:27:20.332Z,26.95
2022-07-25T06:32:48.677Z,27.24
2022-07-25T06:38:20.454Z,27.49
2022-07-25T06:43:52.174Z,27.84
2022-07-25T06:49:23.873Z,28.13
2022-07-25T06:54:55.581Z,28.19
2022-07-25T07:00:27.514Z,28.48
2022-07-25T07:05:59.016Z,28.75
2022-07-25T07:11:30.773Z,28.92
2022-07-25T07:17:06.873Z,29.17
2022-07-25T07:22:38.560Z,29.39
2022-07-25T07:28:10.313Z,29.97
2022-07-25T07:33:42.118Z,30.08
2022-07-25T07:39:13.705Z,30.14
2022-07-25T07:44:45.436Z,30.52
2022-07-25T07:50:17.139Z,30.52
2022-07-25T07:55:48.959Z,30.85
2022-07-25T08:01:20.654Z,31.05
2022-07-25T08:06:52.359Z,31.37
2022-07-25T08:12:24.066Z,31.5
2022-07-25T08:18:02.166Z,31.61
2022-07-25T08:23:33.888Z,31.68
2022-07-25T08:29:18.564Z,31.82
2022-07-25T08:34:37.268Z,31.87
2022-07-25T08:40:08.989Z,32.17
2022-07-25T08:45:40.785Z,32.34
2022-07-25T08:51:12.488Z,32.7
2022-07-25T08:56:44.307Z,32.8
2022-07-25T09:02:16.039Z,32.49
2022-07-25T09:07:47.643Z,32.72
2022-07-25T09:13:19.661Z,33.15
2022-07-25T09:18:55.497Z,33.11
2022-07-25T09:24:27.144Z,33.59
2022-07-25T09:29:58.920Z,33.34
2022-07-25T09:35:30.871Z,33.23
2022-07-25T09:41:02.385Z,33.6
2022-07-25T09:46:34.100Z,33.83
2022-07-25T09:52:05.845Z,34.11
2022-07-25T09:57:37.641Z,34.17
2022-07-25T10:03:09.277Z,34.67
2022-07-25T10:08:40.982Z,34.69
2022-07-25T10:14:12.778Z,34.47
2022-07-25T10:19:51.940Z,34.49
2022-07-25T10:25:20.551Z,34.95
2022-07-25T10:30:52.368Z,35.65
2022-07-25T10:36:24.057Z,35.8
2022-07-25T10:41:55.692Z,35.64
2022-07-25T10:47:27.501Z,35.63
2022-07-25T10:52:59.145Z,36.0
2022-07-25T10:58:30.917Z,36.09
2022-07-25T11:04:02.586Z,36.79
2022-07-25T11:09:34.324Z,36.7
2022-07-25T11:15:06.095Z,36.73
2022-07-25T11:20:42.159Z,36.95
2022-07-25T11:26:13.941Z,37.09
2022-07-25T11:31:45.637Z,37.56
2022-07-25T11:37:17.331Z,37.62
2022-07-25T11:42:49.079Z,36.81
2022-07-25T11:48:20.803Z,37.91
2022-07-25T11:53:52.529Z,37.2
2022-07-25T11:59:24.229Z,36.68
2022-07-25T12:04:55.975Z,35.95
2022-07-25T12:10:27.649Z,35.6
2022-07-25T12:15:59.389Z,35.9
2022-07-25T12:21:35.459Z,36.52
2022-07-25T12:27:07.212Z,36.58
2022-07-25T12:32:38.950Z,36.21
2022-07-25T12:38:10.623Z,35.96
2022-07-25T12:43:42.426Z,35.7
2022-07-25T12:49:14.159Z,35.53
2022-07-25T12:54:45.783Z,35.74
2022-07-25T13:00:17.549Z,36.4
2022-07-25T13:05:49.467Z,36.44
2022-07-25T13:11:21.006Z,36.55
2022-07-25T13:16:52.763Z,36.7
2022-07-25T13:22:30.807Z,36.81
2022-07-25T13:28:02.489Z,36.44
2022-07-25T13:33:34.376Z,36.4
2022-07-25T13:39:06.078Z,36.93
2022-07-25T13:44:37.717Z,36.75
2022-07-25T13:50:09.420Z,36.26
2022-07-25T13:55:41.121Z,35.94
2022-07-25T14:01:12.892Z,35.66
2022-07-25T14:06:44.754Z,35.17
2022-07-25T14:12:16.357Z,35.17
2022-07-25T14:17:48.025Z,34.35
2022-07-25T14:23:28.115Z,34.53
2022-07-25T14:28:55.858Z,34.82
2022-07-25T14:34:27.587Z,35.0
2022-07-25T14:39:59.289Z,35.19
2022-07-25T14:45:31.000Z,34.84
2022-07-25T14:51:02.747Z,35.18
2022-07-25T14:56:34.567Z,34.78
2022-07-25T15:02:06.278Z,34.5
2022-07-25T15:07:38.011Z,34.53
2022-07-25T15:13:29.800Z,34.63
2022-07-25T15:18:58.807Z,34.37
2022-07-25T15:24:17.560Z,33.95
2022-07-25T15:29:49.266Z,33.44
2022-07-25T15:35:21.054Z,33.43
2022-07-25T15:40:52.766Z,33.23
2022-07-25T15:46:24.500Z,32.47
2022-07-25T15:51:56.202Z,32.43
2022-07-25T15:57:27.921Z,32.6
2022-07-25T16:02:59.691Z,33.28
2022-07-25T16:08:31.462Z,33.39
2022-07-25T16:14:03.183Z,33.2
2022-07-25T16:19:34.927Z,33.13
2022-07-25T16:25:11.059Z,33.22
2022-07-25T16:30:42.822Z,33.4
2022-07-25T16:36:14.578Z,33.08
2022-07-25T16:41:46.237Z,33.45
2022-07-25T16:47:17.962Z,33.52
2022-07-25T16:52:49.745Z,33.51
2022-07-25T16:58:21.527Z,33.55
2022-07-25T17:03:53.219Z,33.47
2022-07-25T17:09:24.997Z,33.13
2022-07-25T17:14:56.726Z,33.19
2022-07-25T17:20:28.892Z,33.13
2022-07-25T17:26:04.992Z,32.72
2022-07-25T17:31:36.771Z,32.64
2022-07-25T17:37:08.474Z,32.35
2022-07-25T17:42:44.703Z,32.37
2022-07-25T17:48:11.923Z,32.03
2022-07-25T17:53:43.669Z,31.85
2022-07-25T17:59:15.344Z,31.6
2022-07-25T18:04:47.122Z,31.49
2022-07-25T18:10:18.865Z,31.19
2022-07-25T18:15:50.680Z,31.22
2022-07-25T18:21:22.321Z,30.99
2022-07-25T18:26:58.494Z,30.72
2022-07-25T18:32:30.095Z,30.48
2022-07-25T18:38:01.858Z,29.95
2022-07-25T18:43:33.603Z,29.76
2022-07-25T18:49:05.414Z,29.33
2022-07-25T18:54:37.127Z,29.46
2022-07-25T19:00:08.859Z,29.43
2022-07-25T19:05:40.618Z,29.22
2022-07-25T19:11:12.267Z,29.2
2022-07-25T19:16:44.009Z,29.24
2022-07-25T19:22:15.755Z,28.95
2022-07-25T19:27:51.815Z,29.04
2022-07-25T19:33:23.575Z,29.19
2022-07-25T19:38:55.281Z,28.97
2022-07-25T19:44:27.023Z,28.71
2022-07-25T19:49:58.779Z,28.64
2022-07-25T19:55:30.483Z,28.55
2022-07-25T20:01:02.193Z,28.42
2022-07-25T20:06:33.937Z,28.34
2022-07-25T20:12:05.645Z,28.37
2022-07-25T20:17:37.325Z,28.32
2022-07-25T20:23:09.162Z,28.23
2022-07-25T20:28:45.181Z,28.34
2022-07-25T20:34:16.945Z,28.14
2022-07-25T20:39:48.678Z,27.87
2022-07-25T20:45:20.371Z,27.63
2022-07-25T20:50:52.090Z,27.58
2022-07-25T20:56:23.809Z,27.56
2022-07-25T21:01:56.306Z,27.47
2022-07-25T21:07:28.023Z,27.43
2022-07-25T21:12:59.767Z,27.36
2022-07-25T21:18:31.362Z,27.08
2022-07-25T21:24:03.134Z,26.98
2022-07-25T21:29:41.311Z,27.0
2022-07-25T21:35:13.037Z,26.86
2022-07-25T21:40:44.764Z,26.93
2022-07-25T21:46:16.570Z,26.79
2022-07-25T21:51:48.242Z,26.78
2022-07-25T21:57:19.951Z,26.68
2022-07-25T22:02:51.682Z,26.54
2022-07-25T22:08:23.367Z,26.15
2022-07-25T22:13:55.091Z,26.18
2022-07-25T22:19:26.898Z,25.95
2022-07-25T22:24:58.521Z,25.96
2022-07-25T22:30:34.699Z,25.83
2022-07-25T22:36:06.386Z,25.74
2022-07-25T22:41:38.096Z,25.65
2022-07-25T22:47:09.811Z,25.52
2022-07-25T22:52:41.542Z,25.45
2022-07-25T22:58:13.298Z,25.42
2022-07-25T23:03:45.318Z,25.38
2022-07-25T23:09:16.734Z,25.33
2022-07-25T23:14:48.499Z,25.26
2022-07-25T23:20:20.210Z,25.1
2022-07-25T23:25:51.865Z,25.08
2022-07-25T23:31:28.009Z,25.02
2022-07-25T23:36:59.719Z,24.99
2022-07-25T23:42:31.396Z,24.86
2022-07-25T23:48:03.141Z,24.64
2022-07-25T23:53:34.981Z,24.77
2022-07-25T23:59:06.867Z,24.86
